sensor_id;sensor_type;location;lat;lon;timestamp;P1;durP1;ratioP1;P2;durP2;ratioP2
34541;SDS011;20784;51.332;12.410;2023-06-14T00:02:17;8.32;;;2.25;;
34541;SDS011;20784;51.332;12.410;2023-06-14T00:04:42;8.25;;;2.15;;
34541;SDS011;20784;51.332;12.410;2023-06-14T00:07:10;7.65;;;2.03;;
34541;SDS011;20784;51.332;12.410;2023-06-14T00:09:43;11.52;;;2.15;;
34541;SDS011;20784;51.332;12.410;2023-06-14T00:12:10;4.82;;;2.35;;
34541;SDS011;20784;51.332;12.410;2023-06-14T00:14:36;2.85;;;1.83;;
34541;SDS011;20784;51.332;12.410;2023-06-14T00:17:07;10.25;;;2.65;;
34541;SDS011;20784;51.332;12.410;2023-06-14T00:19:33;7.28;;;2.30;;
34541;SDS011;20784;51.332;12.410;2023-06-14T00:22:03;6.00;;;2.10;;
34541;SDS011;20784;51.332;12.410;2023-06-14T00:24:30;6.63;;;2.17;;
34541;SDS011;20784;51.332;12.410;2023-06-14T00:27:07;7.07;;;2.42;;
34541;SDS011;20784;51.332;12.410;2023-06-14T00:29:40;14.05;;;2.17;;
34541;SDS011;20784;51.332;12.410;2023-06-14T00:32:29;3.85;;;2.25;;
34541;SDS011;20784;51.332;12.410;2023-06-14T00:34:55;8.00;;;2.45;;
34541;SDS011;20784;51.332;12.410;2023-06-14T00:37:21;12.57;;;2.25;;
34541;SDS011;20784;51.332;12.410;2023-06-14T00:39:47;5.65;;;2.22;;
34541;SDS011;20784;51.332;12.410;2023-06-14T00:42:25;14.85;;;2.58;;
34541;SDS011;20784;51.332;12.410;2023-06-14T00:44:51;5.93;;;2.33;;
34541;SDS011;20784;51.332;12.410;2023-06-14T00:47:17;3.67;;;2.20;;
34541;SDS011;20784;51.332;12.410;2023-06-14T00:49:48;3.47;;;1.90;;
34541;SDS011;20784;51.332;12.410;2023-06-14T00:52:17;6.60;;;2.33;;
34541;SDS011;20784;51.332;12.410;2023-06-14T00:54:43;5.88;;;2.33;;
34541;SDS011;20784;51.332;12.410;2023-06-14T00:57:10;9.15;;;2.50;;
34541;SDS011;20784;51.332;12.410;2023-06-14T00:59:44;5.22;;;2.45;;
34541;SDS011;20784;51.332;12.410;2023-06-14T01:02:11;7.03;;;2.17;;
34541;SDS011;20784;51.332;12.410;2023-06-14T01:04:39;8.27;;;2.53;;
34541;SDS011;20784;51.332;12.410;2023-06-14T01:10:15;4.47;;;2.50;;
34541;SDS011;20784;51.332;12.410;2023-06-14T01:15:55;5.30;;;2.20;;
34541;SDS011;20784;51.332;12.410;2023-06-14T01:18:22;7.40;;;2.63;;
34541;SDS011;20784;51.332;12.410;2023-06-14T01:20:49;5.88;;;2.55;;
34541;SDS011;20784;51.332;12.410;2023-06-14T01:23:24;21.52;;;3.28;;
34541;SDS011;20784;51.332;12.410;2023-06-14T01:25:57;6.15;;;2.60;;
34541;SDS011;20784;51.332;12.410;2023-06-14T01:28:24;9.90;;;3.00;;
34541;SDS011;20784;51.332;12.410;2023-06-14T01:30:54;5.75;;;2.22;;
34541;SDS011;20784;51.332;12.410;2023-06-14T01:33:21;4.60;;;2.33;;
34541;SDS011;20784;51.332;12.410;2023-06-14T01:35:52;9.23;;;2.85;;
34541;SDS011;20784;51.332;12.410;2023-06-14T01:38:22;11.75;;;3.08;;
34541;SDS011;20784;51.332;12.410;2023-06-14T01:40:50;9.23;;;2.70;;
34541;SDS011;20784;51.332;12.410;2023-06-14T01:43:18;9.20;;;3.15;;
34541;SDS011;20784;51.332;12.410;2023-06-14T01:45:45;6.45;;;2.45;;
34541;SDS011;20784;51.332;12.410;2023-06-14T01:48:13;5.68;;;3.33;;
34541;SDS011;20784;51.332;12.410;2023-06-14T01:50:42;6.22;;;2.90;;
34541;SDS011;20784;51.332;12.410;2023-06-14T01:53:10;4.07;;;2.55;;
34541;SDS011;20784;51.332;12.410;2023-06-14T01:55:36;4.95;;;2.75;;
34541;SDS011;20784;51.332;12.410;2023-06-14T01:58:03;11.93;;;2.70;;
34541;SDS011;20784;51.332;12.410;2023-06-14T02:00:29;6.00;;;2.60;;
34541;SDS011;20784;51.332;12.410;2023-06-14T02:02:55;4.90;;;2.47;;
34541;SDS011;20784;51.332;12.410;2023-06-14T02:05:21;6.60;;;2.83;;
34541;SDS011;20784;51.332;12.410;2023-06-14T02:07:47;6.38;;;3.15;;
34541;SDS011;20784;51.332;12.410;2023-06-14T02:10:13;6.63;;;2.78;;
34541;SDS011;20784;51.332;12.410;2023-06-14T02:12:39;5.75;;;2.60;;
34541;SDS011;20784;51.332;12.410;2023-06-14T02:15:05;5.50;;;2.60;;
34541;SDS011;20784;51.332;12.410;2023-06-14T02:17:32;4.13;;;2.50;;
34541;SDS011;20784;51.332;12.410;2023-06-14T02:19:57;4.25;;;2.08;;
34541;SDS011;20784;51.332;12.410;2023-06-14T02:22:23;4.25;;;2.60;;
34541;SDS011;20784;51.332;12.410;2023-06-14T02:24:52;3.10;;;2.33;;
34541;SDS011;20784;51.332;12.410;2023-06-14T02:27:27;7.00;;;3.00;;
34541;SDS011;20784;51.332;12.410;2023-06-14T02:29:52;3.65;;;2.30;;
34541;SDS011;20784;51.332;12.410;2023-06-14T02:32:18;3.95;;;2.65;;
34541;SDS011;20784;51.332;12.410;2023-06-14T02:34:46;4.78;;;2.50;;
34541;SDS011;20784;51.332;12.410;2023-06-14T02:37:15;3.47;;;2.30;;
34541;SDS011;20784;51.332;12.410;2023-06-14T02:39:41;6.15;;;2.42;;
34541;SDS011;20784;51.332;12.410;2023-06-14T02:42:06;6.95;;;2.50;;
34541;SDS011;20784;51.332;12.410;2023-06-14T02:44:32;3.42;;;2.28;;
34541;SDS011;20784;51.332;12.410;2023-06-14T02:47:03;6.80;;;2.30;;
34541;SDS011;20784;51.332;12.410;2023-06-14T02:49:33;6.38;;;2.33;;
34541;SDS011;20784;51.332;12.410;2023-06-14T02:51:58;4.43;;;2.65;;
34541;SDS011;20784;51.332;12.410;2023-06-14T02:54:27;7.22;;;2.55;;
34541;SDS011;20784;51.332;12.410;2023-06-14T02:56:53;4.35;;;2.20;;
34541;SDS011;20784;51.332;12.410;2023-06-14T02:59:19;6.53;;;2.78;;
34541;SDS011;20784;51.332;12.410;2023-06-14T03:01:46;5.60;;;2.55;;
34541;SDS011;20784;51.332;12.410;2023-06-14T03:04:14;7.25;;;2.97;;
34541;SDS011;20784;51.332;12.410;2023-06-14T03:06:41;5.40;;;2.40;;
34541;SDS011;20784;51.332;12.410;2023-06-14T03:09:09;3.47;;;2.50;;
34541;SDS011;20784;51.332;12.410;2023-06-14T03:11:40;4.20;;;2.55;;
34541;SDS011;20784;51.332;12.410;2023-06-14T03:14:06;3.92;;;2.55;;
34541;SDS011;20784;51.332;12.410;2023-06-14T03:16:33;3.25;;;2.40;;
34541;SDS011;20784;51.332;12.410;2023-06-14T03:18:59;6.93;;;2.10;;
34541;SDS011;20784;51.332;12.410;2023-06-14T03:21:24;4.68;;;2.30;;
34541;SDS011;20784;51.332;12.410;2023-06-14T03:23:51;4.57;;;2.47;;
34541;SDS011;20784;51.332;12.410;2023-06-14T03:26:18;7.57;;;2.78;;
34541;SDS011;20784;51.332;12.410;2023-06-14T03:28:50;6.32;;;2.67;;
34541;SDS011;20784;51.332;12.410;2023-06-14T03:34:00;10.55;;;2.50;;
34541;SDS011;20784;51.332;12.410;2023-06-14T03:36:34;4.38;;;2.58;;
34541;SDS011;20784;51.332;12.410;2023-06-14T03:39:00;6.03;;;2.90;;
34541;SDS011;20784;51.332;12.410;2023-06-14T03:41:42;5.93;;;3.00;;
34541;SDS011;20784;51.332;12.410;2023-06-14T03:44:13;5.32;;;2.75;;
34541;SDS011;20784;51.332;12.410;2023-06-14T03:46:47;4.68;;;2.50;;
34541;SDS011;20784;51.332;12.410;2023-06-14T03:49:16;3.85;;;2.58;;
34541;SDS011;20784;51.332;12.410;2023-06-14T03:51:42;5.80;;;2.58;;
34541;SDS011;20784;51.332;12.410;2023-06-14T03:54:13;6.30;;;2.70;;
34541;SDS011;20784;51.332;12.410;2023-06-14T03:56:39;3.55;;;2.47;;
34541;SDS011;20784;51.332;12.410;2023-06-14T03:59:10;3.72;;;2.50;;
34541;SDS011;20784;51.332;12.410;2023-06-14T04:01:36;7.30;;;2.58;;
34541;SDS011;20784;51.332;12.410;2023-06-14T04:04:10;3.38;;;2.58;;
34541;SDS011;20784;51.332;12.410;2023-06-14T04:06:36;6.88;;;2.88;;
34541;SDS011;20784;51.332;12.410;2023-06-14T04:09:06;6.80;;;2.90;;
34541;SDS011;20784;51.332;12.410;2023-06-14T04:11:32;4.13;;;2.53;;
34541;SDS011;20784;51.332;12.410;2023-06-14T04:14:05;4.78;;;3.08;;
34541;SDS011;20784;51.332;12.410;2023-06-14T04:16:31;6.95;;;3.05;;
34541;SDS011;20784;51.332;12.410;2023-06-14T04:19:00;6.57;;;2.63;;
34541;SDS011;20784;51.332;12.410;2023-06-14T04:21:28;3.63;;;2.78;;
34541;SDS011;20784;51.332;12.410;2023-06-14T04:23:54;7.03;;;2.90;;
34541;SDS011;20784;51.332;12.410;2023-06-14T04:26:20;5.45;;;2.95;;
34541;SDS011;20784;51.332;12.410;2023-06-14T04:28:55;7.78;;;3.15;;
34541;SDS011;20784;51.332;12.410;2023-06-14T04:31:21;7.97;;;3.50;;
34541;SDS011;20784;51.332;12.410;2023-06-14T04:33:50;5.68;;;3.20;;
34541;SDS011;20784;51.332;12.410;2023-06-14T04:36:17;5.72;;;3.30;;
34541;SDS011;20784;51.332;12.410;2023-06-14T04:38:47;9.43;;;3.65;;
34541;SDS011;20784;51.332;12.410;2023-06-14T04:41:14;6.70;;;2.80;;
34541;SDS011;20784;51.332;12.410;2023-06-14T04:43:41;8.93;;;3.00;;
34541;SDS011;20784;51.332;12.410;2023-06-14T04:46:07;4.35;;;3.20;;
34541;SDS011;20784;51.332;12.410;2023-06-14T04:48:39;6.50;;;3.70;;
34541;SDS011;20784;51.332;12.410;2023-06-14T04:51:05;6.72;;;3.45;;
34541;SDS011;20784;51.332;12.410;2023-06-14T04:53:34;4.20;;;3.17;;
34541;SDS011;20784;51.332;12.410;2023-06-14T04:56:00;9.50;;;3.25;;
34541;SDS011;20784;51.332;12.410;2023-06-14T04:58:26;8.95;;;3.53;;
34541;SDS011;20784;51.332;12.410;2023-06-14T05:00:53;7.78;;;3.50;;
34541;SDS011;20784;51.332;12.410;2023-06-14T05:06:29;9.18;;;3.72;;
34541;SDS011;20784;51.332;12.410;2023-06-14T05:09:15;8.82;;;3.90;;
34541;SDS011;20784;51.332;12.410;2023-06-14T05:12:17;11.43;;;4.13;;
34541;SDS011;20784;51.332;12.410;2023-06-14T05:14:43;10.55;;;3.75;;
34541;SDS011;20784;51.332;12.410;2023-06-14T05:17:10;7.97;;;3.40;;
34541;SDS011;20784;51.332;12.410;2023-06-14T05:19:35;7.63;;;3.63;;
34541;SDS011;20784;51.332;12.410;2023-06-14T05:22:01;10.43;;;4.40;;
34541;SDS011;20784;51.332;12.410;2023-06-14T05:24:27;7.20;;;3.88;;
34541;SDS011;20784;51.332;12.410;2023-06-14T05:26:55;10.50;;;3.97;;
34541;SDS011;20784;51.332;12.410;2023-06-14T05:29:21;6.65;;;4.43;;
34541;SDS011;20784;51.332;12.410;2023-06-14T05:31:53;5.63;;;4.13;;
34541;SDS011;20784;51.332;12.410;2023-06-14T05:34:19;11.90;;;4.30;;
34541;SDS011;20784;51.332;12.410;2023-06-14T05:36:45;6.00;;;4.03;;
34541;SDS011;20784;51.332;12.410;2023-06-14T05:39:11;9.23;;;4.40;;
34541;SDS011;20784;51.332;12.410;2023-06-14T05:41:40;8.15;;;4.00;;
34541;SDS011;20784;51.332;12.410;2023-06-14T05:44:08;9.73;;;4.55;;
34541;SDS011;20784;51.332;12.410;2023-06-14T05:46:36;9.65;;;4.78;;
34541;SDS011;20784;51.332;12.410;2023-06-14T05:49:07;9.57;;;4.50;;
34541;SDS011;20784;51.332;12.410;2023-06-14T05:51:35;9.32;;;4.85;;
34541;SDS011;20784;51.332;12.410;2023-06-14T05:54:01;12.30;;;4.70;;
34541;SDS011;20784;51.332;12.410;2023-06-14T05:56:26;6.95;;;4.90;;
34541;SDS011;20784;51.332;12.410;2023-06-14T05:58:52;7.05;;;4.82;;
34541;SDS011;20784;51.332;12.410;2023-06-14T06:01:21;11.77;;;5.18;;
34541;SDS011;20784;51.332;12.410;2023-06-14T06:03:46;13.98;;;4.93;;
34541;SDS011;20784;51.332;12.410;2023-06-14T06:06:12;6.50;;;4.50;;
34541;SDS011;20784;51.332;12.410;2023-06-14T06:08:38;6.25;;;4.57;;
34541;SDS011;20784;51.332;12.410;2023-06-14T06:11:04;11.20;;;4.45;;
34541;SDS011;20784;51.332;12.410;2023-06-14T06:13:29;9.93;;;4.32;;
34541;SDS011;20784;51.332;12.410;2023-06-14T06:15:57;10.65;;;4.85;;
34541;SDS011;20784;51.332;12.410;2023-06-14T06:18:23;15.05;;;5.45;;
34541;SDS011;20784;51.332;12.410;2023-06-14T06:20:48;10.55;;;4.70;;
34541;SDS011;20784;51.332;12.410;2023-06-14T06:23:19;8.65;;;4.35;;
34541;SDS011;20784;51.332;12.410;2023-06-14T06:25:45;7.20;;;4.70;;
34541;SDS011;20784;51.332;12.410;2023-06-14T06:28:13;8.98;;;5.07;;
34541;SDS011;20784;51.332;12.410;2023-06-14T06:30:38;6.78;;;4.68;;
34541;SDS011;20784;51.332;12.410;2023-06-14T06:33:04;12.65;;;5.32;;
34541;SDS011;20784;51.332;12.410;2023-06-14T06:35:30;7.65;;;4.72;;
34541;SDS011;20784;51.332;12.410;2023-06-14T06:38:06;9.10;;;4.38;;
34541;SDS011;20784;51.332;12.410;2023-06-14T06:40:35;6.57;;;4.80;;
34541;SDS011;20784;51.332;12.410;2023-06-14T06:43:14;7.53;;;4.80;;
34541;SDS011;20784;51.332;12.410;2023-06-14T06:48:42;7.70;;;3.95;;
34541;SDS011;20784;51.332;12.410;2023-06-14T06:51:19;8.43;;;5.07;;
34541;SDS011;20784;51.332;12.410;2023-06-14T06:53:54;6.32;;;4.85;;
34541;SDS011;20784;51.332;12.410;2023-06-14T06:56:23;10.73;;;4.60;;
34541;SDS011;20784;51.332;12.410;2023-06-14T06:58:49;8.30;;;4.60;;
34541;SDS011;20784;51.332;12.410;2023-06-14T07:01:18;9.02;;;4.28;;
34541;SDS011;20784;51.332;12.410;2023-06-14T07:03:46;6.55;;;4.32;;
34541;SDS011;20784;51.332;12.410;2023-06-14T07:06:12;11.45;;;4.50;;
34541;SDS011;20784;51.332;12.410;2023-06-14T07:08:40;6.25;;;4.28;;
34541;SDS011;20784;51.332;12.410;2023-06-14T07:11:06;5.82;;;4.00;;
34541;SDS011;20784;51.332;12.410;2023-06-14T07:13:32;9.32;;;4.00;;
34541;SDS011;20784;51.332;12.410;2023-06-14T07:15:58;6.97;;;3.85;;
34541;SDS011;20784;51.332;12.410;2023-06-14T07:18:25;6.78;;;4.15;;
34541;SDS011;20784;51.332;12.410;2023-06-14T07:20:54;7.43;;;4.05;;
34541;SDS011;20784;51.332;12.410;2023-06-14T07:23:20;9.32;;;3.83;;
34541;SDS011;20784;51.332;12.410;2023-06-14T07:25:45;5.88;;;3.58;;
34541;SDS011;20784;51.332;12.410;2023-06-14T07:28:11;4.90;;;3.55;;
34541;SDS011;20784;51.332;12.410;2023-06-14T07:30:37;7.53;;;3.42;;
34541;SDS011;20784;51.332;12.410;2023-06-14T07:33:03;9.25;;;4.05;;
34541;SDS011;20784;51.332;12.410;2023-06-14T07:35:28;9.68;;;4.47;;
34541;SDS011;20784;51.332;12.410;2023-06-14T07:37:56;9.52;;;3.80;;
34541;SDS011;20784;51.332;12.410;2023-06-14T07:40:22;7.38;;;3.65;;
34541;SDS011;20784;51.332;12.410;2023-06-14T07:42:48;7.72;;;3.70;;
34541;SDS011;20784;51.332;12.410;2023-06-14T07:45:15;8.02;;;3.90;;
34541;SDS011;20784;51.332;12.410;2023-06-14T07:47:41;6.57;;;3.80;;
34541;SDS011;20784;51.332;12.410;2023-06-14T07:50:07;15.00;;;4.28;;
34541;SDS011;20784;51.332;12.410;2023-06-14T07:52:36;6.78;;;3.22;;
34541;SDS011;20784;51.332;12.410;2023-06-14T07:55:02;4.30;;;3.53;;
34541;SDS011;20784;51.332;12.410;2023-06-14T07:57:33;4.60;;;3.25;;
34541;SDS011;20784;51.332;12.410;2023-06-14T07:59:58;9.43;;;3.30;;
34541;SDS011;20784;51.332;12.410;2023-06-14T08:02:24;8.77;;;3.22;;
34541;SDS011;20784;51.332;12.410;2023-06-14T08:04:50;5.95;;;3.50;;
34541;SDS011;20784;51.332;12.410;2023-06-14T08:07:15;6.57;;;4.13;;
34541;SDS011;20784;51.332;12.410;2023-06-14T08:09:41;4.63;;;3.42;;
34541;SDS011;20784;51.332;12.410;2023-06-14T08:12:07;7.35;;;3.70;;
34541;SDS011;20784;51.332;12.410;2023-06-14T08:14:36;5.32;;;3.47;;
34541;SDS011;20784;51.332;12.410;2023-06-14T08:17:01;11.70;;;3.40;;
34541;SDS011;20784;51.332;12.410;2023-06-14T08:19:27;5.38;;;3.25;;
34541;SDS011;20784;51.332;12.410;2023-06-14T08:21:53;4.88;;;3.28;;
34541;SDS011;20784;51.332;12.410;2023-06-14T08:24:21;6.28;;;3.78;;
34541;SDS011;20784;51.332;12.410;2023-06-14T08:26:49;6.60;;;3.38;;
34541;SDS011;20784;51.332;12.410;2023-06-14T08:29:15;4.90;;;3.80;;
34541;SDS011;20784;51.332;12.410;2023-06-14T08:31:41;6.07;;;3.47;;
34541;SDS011;20784;51.332;12.410;2023-06-14T08:34:06;6.35;;;3.90;;
34541;SDS011;20784;51.332;12.410;2023-06-14T08:36:32;6.22;;;3.33;;
34541;SDS011;20784;51.332;12.410;2023-06-14T08:38:58;11.88;;;3.50;;
34541;SDS011;20784;51.332;12.410;2023-06-14T08:41:26;6.53;;;3.95;;
34541;SDS011;20784;51.332;12.410;2023-06-14T08:43:56;9.80;;;3.60;;
34541;SDS011;20784;51.332;12.410;2023-06-14T08:46:25;5.20;;;3.33;;
34541;SDS011;20784;51.332;12.410;2023-06-14T08:49:01;6.38;;;3.25;;
34541;SDS011;20784;51.332;12.410;2023-06-14T08:51:28;4.95;;;3.17;;
34541;SDS011;20784;51.332;12.410;2023-06-14T08:54:16;7.43;;;3.80;;
34541;SDS011;20784;51.332;12.410;2023-06-14T08:56:45;6.05;;;2.83;;
34541;SDS011;20784;51.332;12.410;2023-06-14T08:59:13;3.25;;;2.85;;
34541;SDS011;20784;51.332;12.410;2023-06-14T09:01:40;4.20;;;3.28;;
34541;SDS011;20784;51.332;12.410;2023-06-14T09:04:06;6.97;;;3.55;;
34541;SDS011;20784;51.332;12.410;2023-06-14T09:06:32;3.72;;;2.53;;
34541;SDS011;20784;51.332;12.410;2023-06-14T09:08:58;4.93;;;2.50;;
34541;SDS011;20784;51.332;12.410;2023-06-14T09:11:23;6.63;;;3.25;;
34541;SDS011;20784;51.332;12.410;2023-06-14T09:13:51;3.55;;;3.13;;
34541;SDS011;20784;51.332;12.410;2023-06-14T09:16:16;4.85;;;2.90;;
34541;SDS011;20784;51.332;12.410;2023-06-14T09:18:43;5.53;;;2.60;;
34541;SDS011;20784;51.332;12.410;2023-06-14T09:21:10;5.63;;;2.40;;
34541;SDS011;20784;51.332;12.410;2023-06-14T09:23:39;8.70;;;2.72;;
34541;SDS011;20784;51.332;12.410;2023-06-14T09:26:11;5.70;;;2.40;;
34541;SDS011;20784;51.332;12.410;2023-06-14T09:28:59;4.30;;;2.30;;
34541;SDS011;20784;51.332;12.410;2023-06-14T09:31:25;5.20;;;2.55;;
34541;SDS011;20784;51.332;12.410;2023-06-14T09:33:54;4.03;;;2.70;;
34541;SDS011;20784;51.332;12.410;2023-06-14T09:36:22;2.50;;;2.30;;
34541;SDS011;20784;51.332;12.410;2023-06-14T09:38:52;4.82;;;2.75;;
34541;SDS011;20784;51.332;12.410;2023-06-14T09:41:40;4.25;;;2.50;;
34541;SDS011;20784;51.332;12.410;2023-06-14T09:44:09;3.10;;;2.35;;
34541;SDS011;20784;51.332;12.410;2023-06-14T09:46:37;4.15;;;2.85;;
34541;SDS011;20784;51.332;12.410;2023-06-14T09:49:03;6.95;;;2.53;;
34541;SDS011;20784;51.332;12.410;2023-06-14T09:51:32;4.60;;;2.28;;
34541;SDS011;20784;51.332;12.410;2023-06-14T09:54:02;3.03;;;2.13;;
34541;SDS011;20784;51.332;12.410;2023-06-14T09:59:00;5.05;;;2.50;;
34541;SDS011;20784;51.332;12.410;2023-06-14T10:01:32;3.15;;;2.40;;
34541;SDS011;20784;51.332;12.410;2023-06-14T10:04:08;6.13;;;2.30;;
34541;SDS011;20784;51.332;12.410;2023-06-14T10:06:57;4.88;;;2.10;;
34541;SDS011;20784;51.332;12.410;2023-06-14T10:09:30;3.88;;;2.03;;
34541;SDS011;20784;51.332;12.410;2023-06-14T10:12:09;9.45;;;2.47;;
34541;SDS011;20784;51.332;12.410;2023-06-14T10:14:49;6.07;;;2.50;;
34541;SDS011;20784;51.332;12.410;2023-06-14T10:17:25;12.50;;;3.03;;
34541;SDS011;20784;51.332;12.410;2023-06-14T10:19:55;9.25;;;2.10;;
34541;SDS011;20784;51.332;12.410;2023-06-14T10:22:38;6.22;;;2.40;;
34541;SDS011;20784;51.332;12.410;2023-06-14T10:25:12;3.00;;;2.38;;
34541;SDS011;20784;51.332;12.410;2023-06-14T10:27:50;3.72;;;2.40;;
34541;SDS011;20784;51.332;12.410;2023-06-14T10:30:16;7.20;;;2.75;;
34541;SDS011;20784;51.332;12.410;2023-06-14T10:33:02;6.10;;;2.08;;
34541;SDS011;20784;51.332;12.410;2023-06-14T10:35:31;5.25;;;2.50;;
34541;SDS011;20784;51.332;12.410;2023-06-14T10:38:06;3.20;;;2.45;;
34541;SDS011;20784;51.332;12.410;2023-06-14T10:40:40;2.80;;;2.35;;
34541;SDS011;20784;51.332;12.410;2023-06-14T10:43:23;5.13;;;2.33;;
34541;SDS011;20784;51.332;12.410;2023-06-14T10:48:47;3.33;;;2.17;;
34541;SDS011;20784;51.332;12.410;2023-06-14T10:51:19;4.28;;;2.00;;
34541;SDS011;20784;51.332;12.410;2023-06-14T10:53:50;2.53;;;2.10;;
34541;SDS011;20784;51.332;12.410;2023-06-14T10:56:24;2.13;;;1.92;;
34541;SDS011;20784;51.332;12.410;2023-06-14T10:58:53;4.68;;;2.08;;
34541;SDS011;20784;51.332;12.410;2023-06-14T11:01:23;4.97;;;2.00;;
34541;SDS011;20784;51.332;12.410;2023-06-14T11:04:06;6.28;;;2.15;;
34541;SDS011;20784;51.332;12.410;2023-06-14T11:06:59;2.92;;;2.17;;
34541;SDS011;20784;51.332;12.410;2023-06-14T11:12:33;2.60;;;2.00;;
34541;SDS011;20784;51.332;12.410;2023-06-14T11:15:01;3.97;;;2.13;;
34541;SDS011;20784;51.332;12.410;2023-06-14T11:17:27;3.38;;;2.08;;
34541;SDS011;20784;51.332;12.410;2023-06-14T11:20:10;3.92;;;1.80;;
34541;SDS011;20784;51.332;12.410;2023-06-14T11:22:43;9.63;;;2.80;;
34541;SDS011;20784;51.332;12.410;2023-06-14T11:25:11;5.82;;;2.03;;
34541;SDS011;20784;51.332;12.410;2023-06-14T11:27:37;5.32;;;2.25;;
34541;SDS011;20784;51.332;12.410;2023-06-14T11:30:06;2.83;;;1.95;;
34541;SDS011;20784;51.332;12.410;2023-06-14T11:32:33;2.92;;;1.92;;
34541;SDS011;20784;51.332;12.410;2023-06-14T11:34:58;4.13;;;1.90;;
34541;SDS011;20784;51.332;12.410;2023-06-14T11:37:25;4.55;;;2.10;;
34541;SDS011;20784;51.332;12.410;2023-06-14T11:39:57;3.33;;;1.90;;
34541;SDS011;20784;51.332;12.410;2023-06-14T11:42:24;2.63;;;1.90;;
34541;SDS011;20784;51.332;12.410;2023-06-14T11:44:52;3.15;;;2.08;;
34541;SDS011;20784;51.332;12.410;2023-06-14T11:47:21;6.47;;;1.95;;
34541;SDS011;20784;51.332;12.410;2023-06-14T11:49:50;5.25;;;1.98;;
34541;SDS011;20784;51.332;12.410;2023-06-14T11:52:19;3.58;;;2.05;;
34541;SDS011;20784;51.332;12.410;2023-06-14T11:54:50;2.75;;;2.20;;
34541;SDS011;20784;51.332;12.410;2023-06-14T11:57:19;7.75;;;2.35;;
34541;SDS011;20784;51.332;12.410;2023-06-14T11:59:50;5.00;;;2.13;;
34541;SDS011;20784;51.332;12.410;2023-06-14T12:02:16;2.63;;;2.00;;
34541;SDS011;20784;51.332;12.410;2023-06-14T12:04:48;2.58;;;1.90;;
34541;SDS011;20784;51.332;12.410;2023-06-14T12:07:14;2.42;;;1.70;;
34541;SDS011;20784;51.332;12.410;2023-06-14T12:12:22;4.82;;;2.20;;
34541;SDS011;20784;51.332;12.410;2023-06-14T12:14:51;6.43;;;2.25;;
34541;SDS011;20784;51.332;12.410;2023-06-14T12:17:18;2.55;;;2.20;;
34541;SDS011;20784;51.332;12.410;2023-06-14T12:19:46;5.57;;;2.58;;
34541;SDS011;20784;51.332;12.410;2023-06-14T12:22:14;7.40;;;2.13;;
34541;SDS011;20784;51.332;12.410;2023-06-14T12:24:43;3.92;;;2.03;;
34541;SDS011;20784;51.332;12.410;2023-06-14T12:27:09;3.25;;;2.13;;
34541;SDS011;20784;51.332;12.410;2023-06-14T12:29:37;4.03;;;2.35;;
34541;SDS011;20784;51.332;12.410;2023-06-14T12:32:03;3.72;;;2.20;;
34541;SDS011;20784;51.332;12.410;2023-06-14T12:34:29;4.00;;;2.42;;
34541;SDS011;20784;51.332;12.410;2023-06-14T12:36:56;4.72;;;2.30;;
34541;SDS011;20784;51.332;12.410;2023-06-14T12:39:22;5.63;;;2.30;;
34541;SDS011;20784;51.332;12.410;2023-06-14T12:41:50;7.10;;;2.40;;
34541;SDS011;20784;51.332;12.410;2023-06-14T12:44:16;5.40;;;2.50;;
34541;SDS011;20784;51.332;12.410;2023-06-14T12:46:42;4.53;;;2.35;;
34541;SDS011;20784;51.332;12.410;2023-06-14T12:49:11;9.77;;;2.97;;
34541;SDS011;20784;51.332;12.410;2023-06-14T12:51:37;3.83;;;2.63;;
34541;SDS011;20784;51.332;12.410;2023-06-14T12:54:06;5.30;;;2.50;;
34541;SDS011;20784;51.332;12.410;2023-06-14T12:56:32;5.13;;;2.70;;
34541;SDS011;20784;51.332;12.410;2023-06-14T12:58:58;5.75;;;3.13;;
34541;SDS011;20784;51.332;12.410;2023-06-14T13:01:24;5.70;;;2.78;;
34541;SDS011;20784;51.332;12.410;2023-06-14T13:03:53;3.60;;;2.50;;
34541;SDS011;20784;51.332;12.410;2023-06-14T13:06:23;6.15;;;2.90;;
34541;SDS011;20784;51.332;12.410;2023-06-14T13:08:49;4.63;;;2.60;;
34541;SDS011;20784;51.332;12.410;2023-06-14T13:11:19;4.97;;;2.85;;
34541;SDS011;20784;51.332;12.410;2023-06-14T13:13:45;7.35;;;2.97;;
34541;SDS011;20784;51.332;12.410;2023-06-14T13:16:14;8.70;;;2.70;;
34541;SDS011;20784;51.332;12.410;2023-06-14T13:18:39;4.43;;;2.55;;
34541;SDS011;20784;51.332;12.410;2023-06-14T13:21:08;6.85;;;2.58;;
34541;SDS011;20784;51.332;12.410;2023-06-14T13:23:38;3.60;;;2.30;;
34541;SDS011;20784;51.332;12.410;2023-06-14T13:26:45;4.88;;;2.50;;
34541;SDS011;20784;51.332;12.410;2023-06-14T13:29:39;4.57;;;2.55;;
34541;SDS011;20784;51.332;12.410;2023-06-14T13:32:20;6.05;;;3.20;;
34541;SDS011;20784;51.332;12.410;2023-06-14T13:34:59;4.43;;;2.72;;
34541;SDS011;20784;51.332;12.410;2023-06-14T13:44:14;5.20;;;2.50;;
34541;SDS011;20784;51.332;12.410;2023-06-14T13:46:56;5.35;;;2.67;;
34541;SDS011;20784;51.332;12.410;2023-06-14T13:49:38;4.43;;;3.13;;
34541;SDS011;20784;51.332;12.410;2023-06-14T13:52:04;3.15;;;2.78;;
34541;SDS011;20784;51.332;12.410;2023-06-14T13:54:30;4.15;;;3.10;;
34541;SDS011;20784;51.332;12.410;2023-06-14T13:57:12;3.47;;;3.00;;
34541;SDS011;20784;51.332;12.410;2023-06-14T14:02:08;8.32;;;3.08;;
34541;SDS011;20784;51.332;12.410;2023-06-14T14:04:38;5.57;;;3.00;;
34541;SDS011;20784;51.332;12.410;2023-06-14T14:07:05;7.07;;;3.33;;
34541;SDS011;20784;51.332;12.410;2023-06-14T14:09:54;7.15;;;3.22;;
34541;SDS011;20784;51.332;12.410;2023-06-14T14:12:45;5.45;;;2.80;;
34541;SDS011;20784;51.332;12.410;2023-06-14T14:15:17;4.63;;;2.67;;
34541;SDS011;20784;51.332;12.410;2023-06-14T14:17:48;3.03;;;2.70;;
34541;SDS011;20784;51.332;12.410;2023-06-14T14:20:17;6.18;;;2.97;;
34541;SDS011;20784;51.332;12.410;2023-06-14T14:23:12;4.30;;;2.50;;
34541;SDS011;20784;51.332;12.410;2023-06-14T14:25:38;5.20;;;2.50;;
34541;SDS011;20784;51.332;12.410;2023-06-14T14:28:04;4.13;;;2.70;;
34541;SDS011;20784;51.332;12.410;2023-06-14T14:30:35;3.25;;;2.25;;
34541;SDS011;20784;51.332;12.410;2023-06-14T14:33:04;4.72;;;2.92;;
34541;SDS011;20784;51.332;12.410;2023-06-14T14:35:31;5.47;;;2.78;;
34541;SDS011;20784;51.332;12.410;2023-06-14T14:38:00;4.30;;;2.78;;
34541;SDS011;20784;51.332;12.410;2023-06-14T14:40:37;6.85;;;2.70;;
34541;SDS011;20784;51.332;12.410;2023-06-14T14:43:16;2.92;;;2.50;;
34541;SDS011;20784;51.332;12.410;2023-06-14T14:45:47;3.08;;;2.65;;
34541;SDS011;20784;51.332;12.410;2023-06-14T14:48:15;5.47;;;2.30;;
34541;SDS011;20784;51.332;12.410;2023-06-14T14:50:43;4.40;;;2.83;;
34541;SDS011;20784;51.332;12.410;2023-06-14T14:53:09;6.95;;;2.63;;
34541;SDS011;20784;51.332;12.410;2023-06-14T14:55:35;5.95;;;2.30;;
34541;SDS011;20784;51.332;12.410;2023-06-14T14:58:02;5.20;;;2.45;;
34541;SDS011;20784;51.332;12.410;2023-06-14T15:00:28;9.27;;;2.80;;
34541;SDS011;20784;51.332;12.410;2023-06-14T15:03:02;5.70;;;2.63;;
34541;SDS011;20784;51.332;12.410;2023-06-14T15:05:37;4.43;;;2.88;;
34541;SDS011;20784;51.332;12.410;2023-06-14T15:08:26;5.00;;;2.58;;
34541;SDS011;20784;51.332;12.410;2023-06-14T15:10:54;3.78;;;2.65;;
34541;SDS011;20784;51.332;12.410;2023-06-14T15:13:28;5.53;;;3.00;;
34541;SDS011;20784;51.332;12.410;2023-06-14T15:16:05;6.82;;;3.10;;
34541;SDS011;20784;51.332;12.410;2023-06-14T15:18:34;8.07;;;2.70;;
34541;SDS011;20784;51.332;12.410;2023-06-14T15:21:05;4.00;;;2.80;;
34541;SDS011;20784;51.332;12.410;2023-06-14T15:23:53;10.57;;;2.78;;